Time;durP1;ratioP1;P1;durP2;ratioP2;P2;SDS_P1;SDS_P2;PMS_P1;PMS_P2;Temp;Humidity;BMP_temperature;BMP_pressure;BME280_temperature;BME280_humidity;BME280_pressure;Samples;Min_cycle;Max_cycle;Signal;HPM_P1;HPM_P2
2022/05/17 00:00:24;;;;;;;49.47;45.67;;;;;;;14.77;100.00;101181.81;5024620;28;20053;-81
2022/05/17 00:03:18;;;;;;;56.53;52.08;;;;;;;15.07;100.00;101175.72;5018974;28;20498;-81
2022/05/17 00:06:13;;;;;;;83.45;77.95;;;;;;;15.20;100.00;101170.19;5026639;28;20041;-83
2022/05/17 00:09:12;;;;;;;93.22;87.32;;;;;;;15.43;100.00;101161.47;5054218;28;20049;-81
2022/05/17 00:11:45;;;;;;;112.50;105.57;;;;;;;15.57;100.00;101170.09;5062734;28;20048;-83
2022/05/17 00:14:32;;;;;;;84.18;78.68;;;;;;;15.14;100.00;101164.94;5068620;28;20076;-83
2022/05/17 00:17:16;;;;;;;86.40;80.60;;;;;;;15.15;100.00;101161.19;5074519;28;20420;-82
2022/05/17 00:19:50;;;;;;;50.80;46.85;;;;;;;14.88;100.00;101161.50;5057394;28;20045;-82
2022/05/17 00:22:37;;;;;;;53.78;50.03;;;;;;;15.18;100.00;101152.72;5053663;28;20132;-83
2022/05/17 00:25:09;;;;;;;52.95;49.15;;;;;;;14.97;100.00;101157.50;5073164;28;20044;-83
2022/05/17 00:27:46;;;;;;;104.70;98.43;;;;;;;14.95;100.00;101156.06;5058190;28;20052;-83
2022/05/17 00:30:29;;;;;;;114.18;107.40;;;;;;;14.68;100.00;101145.72;5057640;28;20455;-84
2022/05/17 00:33:31;;;;;;;;;;;;;;;14.95;100.00;101153.41;5060177;28;20156;-81
2022/05/17 00:36:08;;;;;;;76.25;71.47;;;;;;;14.88;100.00;101148.94;5034998;28;19920;-83
2022/05/17 00:38:38;;;;;;;80.63;75.53;;;;;;;14.46;100.00;101153.28;5051079;28;20127;-81
2022/05/17 00:41:14;;;;;;;49.00;45.00;;;;;;;14.36;100.00;101156.47;5049629;28;20049;-83
2022/05/17 00:46:49;;;;;;;111.32;104.65;;;;;;;14.78;100.00;101147.84;5047078;28;20051;-83
2022/05/17 00:49:40;;;;;;;96.30;90.20;;;;;;;14.70;100.00;101151.63;5056864;28;20137;-83
2022/05/17 00:55:09;;;;;;;49.00;45.00;;;;;;;14.65;100.00;101157.66;5041194;28;20079;-84
2022/05/17 00:57:54;;;;;;;52.60;48.75;;;;;;;14.82;100.00;101141.81;5057854;28;20533;-83
2022/05/17 01:00:36;;;;;;;53.03;48.88;;;;;;;14.65;100.00;101140.81;5054186;28;20049;-83
2022/05/17 01:03:18;;;;;;;49.80;46.00;;;;;;;14.38;100.00;101140.22;5053299;28;20082;-82
2022/05/17 01:05:58;;;;;;;49.28;45.60;;;;;;;14.20;100.00;101147.16;5060795;28;20388;-83
2022/05/17 01:08:36;;;;;;;51.78;47.58;;;;;;;14.05;100.00;101145.88;5055876;28;20052;-82
2022/05/17 01:11:03;;;;;;;55.22;50.92;;;;;;;14.29;100.00;101155.72;5062083;28;20074;-82
2022/05/17 01:16:49;;;;;;;52.28;48.05;;;;;;;14.43;100.00;101149.22;4977485;28;20044;-83
2022/05/17 01:19:39;;;;;;;54.10;50.10;;;;;;;14.25;100.00;101138.50;5051769;28;20056;-83
2022/05/17 01:22:43;;;;;;;55.63;51.45;;;;;;;14.57;100.00;101141.91;5055435;28;20413;-82
2022/05/17 01:25:34;;;;;;;48.60;44.60;;;;;;;14.40;100.00;101143.47;5020437;28;20165;-84
2022/05/17 01:28:28;;;;;;;54.22;49.72;;;;;;;14.47;100.00;101138.91;5057922;28;20041;-82
2022/05/17 01:34:14;;;;;;;53.40;49.03;;;;;;;14.51;100.00;101137.44;5033158;28;20049;-82
2022/05/17 01:36:42;;;;;;;50.97;46.72;;;;;;;14.80;100.00;101132.41;5061998;28;20049;-84
2022/05/17 01:41:58;;;;;;;52.67;48.42;;;;;;;14.42;100.00;101133.41;5051703;28;20053;-82
2022/05/17 01:44:56;;;;;;;49.08;45.03;;;;;;;14.72;100.00;101116.66;5054517;28;20099;-81
2022/05/17 01:47:57;;;;;;;48.13;44.15;;;;;;;14.50;100.00;101119.75;4957684;28;20059;-82
2022/05/17 01:50:33;;;;;;;49.22;45.10;;;;;;;13.81;100.00;101123.47;5001008;28;20049;-86
2022/05/17 01:53:10;;;;;;;49.70;45.30;;;;;;;14.18;100.00;101125.19;5053608;28;20118;-82
2022/05/17 01:55:55;;;;;;;50.38;46.05;;;;;;;14.34;100.00;101131.00;5057154;28;20041;-83
2022/05/17 01:58:28;;;;;;;47.55;43.92;;;;;;;14.78;100.00;101126.47;5057133;28;20056;-83
2022/05/17 02:00:57;;;;;;;46.08;42.45;;;;;;;14.84;100.00;101117.56;5163708;22;20678;-81
2022/05/17 02:03:27;;;;;;;44.30;40.70;;;;;;;14.55;100.00;101124.44;5073955;28;20044;-80
2022/05/17 02:05:59;;;;;;;49.63;45.72;;;;;;;14.59;100.00;101128.34;5074351;28;20049;-80
2022/05/17 02:08:29;;;;;;;52.80;48.60;;;;;;;14.62;100.00;101125.22;5073648;28;20063;-80
2022/05/17 02:10:56;;;;;;;49.90;45.65;;;;;;;13.97;100.00;101121.06;5072357;28;20139;-81
2022/05/17 02:13:24;;;;;;;50.15;46.25;;;;;;;14.22;100.00;101128.25;5074214;28;20072;-81
2022/05/17 02:15:51;;;;;;;49.05;45.20;;;;;;;13.95;100.00;101119.66;5074074;28;20053;-81
2022/05/17 02:18:27;;;;;;;49.75;45.65;;;;;;;14.03;100.00;101130.06;5074380;28;20487;-81
2022/05/17 02:20:55;;;;;;;50.08;45.97;;;;;;;13.86;100.00;101127.13;5067939;28;20041;-82
2022/05/17 02:26:20;;;;;;;81.35;75.82;;;;;;;13.71;100.00;101130.13;5068944;28;20514;-81
2022/05/17 02:28:53;;;;;;;66.30;61.20;;;;;;;13.50;100.00;101136.63;5039675;28;20052;-78
2022/05/17 02:31:25;;;;;;;75.35;69.85;;;;;;;13.31;100.00;101126.84;5073284;28;20564;-82
2022/05/17 02:33:51;;;;;;;73.95;68.65;;;;;;;13.81;100.00;101136.81;5069903;28;20055;-79
2022/05/17 02:36:25;;;;;;;77.20;72.13;;;;;;;13.89;100.00;101134.69;5073096;28;20063;-81
2022/05/17 02:38:52;;;;;;;83.50;77.88;;;;;;;13.59;100.00;101137.19;5073326;28;20049;-82
2022/05/17 02:41:20;;;;;;;76.90;71.45;;;;;;;13.67;100.00;101134.22;5076110;28;20060;-83
2022/05/17 02:43:48;;;;;;;74.38;69.22;;;;;;;13.56;100.00;101142.13;5073322;28;20095;-80
2022/05/17 02:46:15;;;;;;;62.20;57.78;;;;;;;13.34;100.00;101138.97;5072837;28;20041;-81
2022/05/17 02:48:42;;;;;;;59.03;55.15;;;;;;;13.36;100.00;101134.22;5072726;28;20393;-81
2022/05/17 02:51:12;;;;;;;71.22;66.60;;;;;;;13.37;100.00;101143.88;5062256;28;20052;-80
2022/05/17 02:53:40;;;;;;;73.03;68.03;;;;;;;12.81;100.00;101140.81;5066372;28;20489;-80
2022/05/17 02:56:10;;;;;;;69.43;64.80;;;;;;;13.22;100.00;101149.44;5072993;28;20117;-80
2022/05/17 02:58:46;;;;;;;56.03;52.05;;;;;;;12.88;100.00;101151.44;5072715;28;20048;-81
2022/05/17 03:01:17;;;;;;;51.50;47.72;;;;;;;13.12;100.00;101151.75;5070374;28;20045;-80
2022/05/17 03:03:49;;;;;;;53.10;49.20;;;;;;;13.26;100.00;101142.72;5073984;28;20405;-80
2022/05/17 03:06:21;;;;;;;53.05;49.35;;;;;;;13.08;100.00;101146.03;5066874;28;20102;-79
2022/05/17 03:08:49;;;;;;;53.97;50.25;;;;;;;13.15;100.00;101143.34;5063906;28;20136;-80
2022/05/17 03:11:18;;;;;;;40.63;37.38;;;;;;;13.20;100.00;101155.00;5074029;28;20059;-80
2022/05/17 03:13:45;;;;;;;39.22;36.13;;;;;;;13.20;100.00;101155.00;5066302;28;20465;-80
2022/05/17 03:16:19;;;;;;;48.35;44.65;;;;;;;13.28;100.00;101143.28;5075166;28;20048;-81
2022/05/17 03:18:47;;;;;;;45.95;42.45;;;;;;;13.23;100.00;101145.78;5071078;28;20424;-80
2022/05/17 03:21:14;;;;;;;50.13;46.53;;;;;;;13.30;100.00;101138.56;5073649;28;20446;-80
2022/05/17 03:23:42;;;;;;;49.00;45.22;;;;;;;13.30;100.00;101138.56;5075486;28;20047;-81
2022/05/17 03:26:10;;;;;;;49.55;45.85;;;;;;;13.34;100.00;101142.44;5073147;28;20534;-80
2022/05/17 03:28:38;;;;;;;47.88;44.50;;;;;;;13.37;100.00;101141.19;5063426;28;20052;-81
2022/05/17 03:31:08;;;;;;;46.45;43.35;;;;;;;13.36;100.00;101139.56;5070766;28;20045;-81
2022/05/17 03:33:37;;;;;;;40.47;37.58;;;;;;;13.37;100.00;101139.34;5072417;28;20123;-81
2022/05/17 03:36:13;;;;;;;39.80;36.80;;;;;;;13.45;100.00;101143.63;5071976;28;20064;-83
2022/05/17 03:38:40;;;;;;;42.20;39.17;;;;;;;13.35;100.00;101144.09;5068959;28;20102;-84
2022/05/17 03:41:07;;;;;;;45.67;42.38;;;;;;;13.51;100.00;101148.91;5072637;28;20044;-80
2022/05/17 03:43:34;;;;;;;46.08;42.88;;;;;;;13.68;100.00;101140.41;5072446;28;20118;-79
2022/05/17 03:46:10;;;;;;;48.20;44.83;;;;;;;13.39;100.00;101142.63;5069624;28;20076;-83
2022/05/17 03:48:39;;;;;;;49.88;46.47;;;;;;;13.73;100.00;101148.56;5073127;28;20055;-80
2022/05/17 03:51:14;;;;;;;49.75;45.95;;;;;;;13.61;100.00;101151.09;5067518;28;20439;-81
2022/05/17 03:53:43;;;;;;;48.30;44.95;;;;;;;13.69;100.00;101152.72;5073952;28;20049;-81
2022/05/17 03:56:10;;;;;;;45.97;42.65;;;;;;;13.93;100.00;101159.13;5072493;28;20045;-82
2022/05/17 03:58:38;;;;;;;47.90;44.33;;;;;;;14.16;100.00;101161.16;5072797;28;20114;-81
2022/05/17 04:01:05;;;;;;;53.47;49.33;;;;;;;14.47;100.00;101151.47;5069568;28;20094;-83
2022/05/17 04:03:33;;;;;;;50.60;45.63;;;;;;;14.70;100.00;101150.81;5072773;28;20121;-81
2022/05/17 04:06:07;;;;;;;38.53;35.55;;;;;;;14.74;100.00;101141.34;5056592;28;20434;-82
2022/05/17 04:08:36;;;;;;;40.53;37.05;;;;;;;14.82;100.00;101144.50;5072274;28;20529;-80
2022/05/17 04:11:03;;;;;;;50.72;47.13;;;;;;;15.02;100.00;101138.13;5072331;28;20070;-80
2022/05/17 04:13:32;;;;;;;45.30;42.03;;;;;;;14.97;100.00;101144.13;5072675;28;20040;-79
2022/05/17 04:16:00;;;;;;;47.90;44.80;;;;;;;15.28;100.00;101147.63;5070451;28;20059;-81
2022/05/17 04:18:27;;;;;;;50.17;46.72;;;;;;;15.39;100.00;101141.53;5074619;28;20040;-80
2022/05/17 04:20:58;;;;;;;45.40;42.40;;;;;;;15.54;100.00;101144.59;5075291;28;20048;-81
2022/05/17 04:23:27;;;;;;;45.40;42.22;;;;;;;15.50;100.00;101150.66;5069019;28;20123;-79
2022/05/17 04:25:57;;;;;;;44.95;41.85;;;;;;;15.70;100.00;101145.84;5067396;28;20056;-80
2022/05/17 04:28:24;;;;;;;42.28;39.47;;;;;;;15.75;100.00;101145.16;5068608;28;20052;-80
2022/05/17 04:30:55;;;;;;;39.63;36.88;;;;;;;16.02;100.00;101143.69;5074765;28;20546;-81
2022/05/17 04:33:23;;;;;;;40.38;37.70;;;;;;;16.03;100.00;101142.63;5068857;28;20403;-80
2022/05/17 04:35:53;;;;;;;42.20;39.25;;;;;;;16.27;100.00;101146.13;5075641;28;20040;-81
2022/05/17 04:38:20;;;;;;;45.83;42.70;;;;;;;16.32;100.00;101145.44;5075344;28;20123;-81
2022/05/17 04:40:49;;;;;;;45.22;42.13;;;;;;;16.45;100.00;101134.47;5074321;28;20067;-81
2022/05/17 04:43:16;;;;;;;42.88;39.97;;;;;;;16.54;100.00;101136.81;5073024;28;20049;-79
2022/05/17 04:45:44;;;;;;;40.80;38.28;;;;;;;16.69;100.00;101137.94;5075229;28;20436;-79
2022/05/17 04:48:11;;;;;;;43.85;41.05;;;;;;;16.96;100.00;101136.63;5073306;28;20044;-79
2022/05/17 04:50:40;;;;;;;42.38;39.72;;;;;;;17.02;100.00;101131.13;5075497;28;20053;-81
2022/05/17 04:53:15;;;;;;;44.08;41.25;;;;;;;17.09;100.00;101141.72;5074469;28;20476;-79
2022/05/17 04:56:05;;;;;;;38.80;36.25;;;;;;;17.23;100.00;101142.25;5075496;28;20037;-81
2022/05/17 04:58:57;;;;;;;39.55;36.97;;;;;;;17.25;100.00;101145.53;5074637;28;20476;-81
2022/05/17 05:01:24;;;;;;;39.47;36.47;;;;;;;17.31;100.00;101134.63;5072024;28;20392;-84
2022/05/17 05:03:52;;;;;;;37.97;35.67;;;;;;;17.43;100.00;101129.22;5071454;28;20049;-81
2022/05/17 05:06:19;;;;;;;38.58;36.13;;;;;;;17.38;100.00;101118.38;5075047;28;20041;-80
2022/05/17 05:08:47;;;;;;;35.53;33.13;;;;;;;17.70;100.00;101132.09;5074816;28;20048;-80
2022/05/17 05:11:17;;;;;;;35.80;33.30;;;;;;;18.07;100.00;101126.25;5071970;28;20048;-80
2022/05/17 05:13:45;;;;;;;36.22;33.63;;;;;;;18.16;100.00;101132.03;5068999;28;20052;-80
2022/05/17 05:16:14;;;;;;;37.97;35.15;;;;;;;18.18;100.00;101130.72;5075472;28;20056;-82
2022/05/17 05:18:41;;;;;;;37.03;34.38;;;;;;;18.28;100.00;101136.25;5059458;28;20084;-80
2022/05/17 05:21:11;;;;;;;40.70;37.80;;;;;;;18.64;100.00;101130.53;5070421;28;20057;-81
2022/05/17 05:23:39;;;;;;;37.35;34.85;;;;;;;18.60;100.00;101132.91;5071856;28;20048;-81
2022/05/17 05:26:24;;;;;;;35.28;33.00;;;;;;;18.66;100.00;101139.97;5071881;28;20467;-82
2022/05/17 05:29:03;;;;;;;33.85;31.73;;;;;;;18.79;100.00;101138.84;5074255;28;20044;-81
2022/05/17 05:31:30;;;;;;;37.58;35.17;;;;;;;18.92;100.00;101134.97;5072694;28;20041;-82
2022/05/17 05:34:00;;;;;;;37.33;34.65;;;;;;;18.94;100.00;101128.28;5072323;28;20115;-81
2022/05/17 05:36:27;;;;;;;37.97;35.67;;;;;;;19.07;100.00;101135.13;5067577;28;20480;-81
2022/05/17 05:38:57;;;;;;;38.20;35.45;;;;;;;19.27;100.00;101133.72;5073320;28;20044;-80
2022/05/17 05:41:26;;;;;;;40.97;37.75;;;;;;;19.42;100.00;101139.25;5073212;28;20044;-81
2022/05/17 05:43:53;;;;;;;35.03;32.45;;;;;;;19.65;100.00;101140.88;5068091;28;20131;-81
2022/05/17 05:46:20;;;;;;;33.90;31.60;;;;;;;19.61;100.00;101153.19;5067739;28;20401;-81
2022/05/17 05:48:49;;;;;;;33.38;31.20;;;;;;;19.65;100.00;101141.66;5073589;28;20052;-79
2022/05/17 05:51:17;;;;;;;32.80;30.73;;;;;;;19.77;100.00;101148.78;5073042;28;20110;-81
2022/05/17 05:53:45;;;;;;;34.03;31.58;;;;;;;20.01;100.00;101160.03;5073221;28;20055;-81
2022/05/17 05:56:12;;;;;;;34.03;31.27;;;;;;;19.93;100.00;101153.22;5073152;28;20122;-80
2022/05/17 05:58:42;;;;;;;36.60;33.53;;;;;;;20.16;100.00;101159.34;5071137;28;20048;-81
2022/05/17 06:01:10;;;;;;;36.00;33.45;;;;;;;20.42;100.00;101163.78;5070337;28;20052;-81
2022/05/17 06:03:37;;;;;;;35.67;33.17;;;;;;;20.95;100.00;101158.44;5069851;28;20075;-81
2022/05/17 06:06:05;;;;;;;37.28;34.50;;;;;;;21.06;100.00;101146.59;5074314;28;20048;-80
2022/05/17 06:08:32;;;;;;;36.25;33.90;;;;;;;21.31;100.00;101145.84;5074056;28;20432;-82
2022/05/17 06:11:01;;;;;;;33.95;31.75;;;;;;;21.41;100.00;101145.06;5074169;28;20106;-80
2022/05/17 06:13:28;;;;;;;32.40;30.35;;;;;;;21.59;100.00;101136.44;5073590;28;20044;-82
2022/05/17 06:15:56;;;;;;;32.83;30.88;;;;;;;21.66;100.00;101138.88;5074229;28;20110;-82
2022/05/17 06:18:23;;;;;;;29.17;27.45;;;;;;;21.43;100.00;101132.94;5073460;28;20040;-81
2022/05/17 06:20:51;;;;;;;30.25;28.40;;;;;;;21.38;100.00;101132.09;5073430;28;20068;-81
2022/05/17 06:23:19;;;;;;;32.00;29.67;;;;;;;21.61;100.00;101130.78;5073835;28;20106;-81
2022/05/17 06:25:45;;;;;;;31.23;29.55;;;;;;;21.72;100.00;101133.22;5069492;28;20121;-80
2022/05/17 06:28:12;;;;;;;30.75;29.05;;;;;;;21.89;100.00;101132.13;5067632;28;20052;-81
2022/05/17 06:30:41;;;;;;;29.98;28.20;;;;;;;21.83;100.00;101128.63;5072644;28;20044;-80
2022/05/17 06:33:10;;;;;;;30.42;27.92;;;;;;;21.93;100.00;101133.19;5072941;28;20131;-79
2022/05/17 06:35:37;;;;;;;30.52;28.40;;;;;;;22.06;100.00;101138.06;5074154;28;20129;-81
2022/05/17 06:38:05;;;;;;;29.92;28.40;;;;;;;22.15;100.00;101141.03;5072346;28;20067;-81
2022/05/17 06:40:32;;;;;;;28.48;27.05;;;;;;;22.23;100.00;101137.78;5073837;28;20060;-80
2022/05/17 06:42:59;;;;;;;28.73;27.08;;;;;;;22.31;100.00;101129.13;5074024;28;20060;-81
2022/05/17 06:45:26;;;;;;;29.52;27.77;;;;;;;22.34;100.00;101133.19;5073247;28;20055;-81
2022/05/17 06:47:53;;;;;;;30.02;28.23;;;;;;;22.62;100.00;101132.53;5073115;28;20048;-82
2022/05/17 06:50:21;;;;;;;29.88;28.08;;;;;;;22.40;100.00;101137.50;5073236;28;20049;-80
2022/05/17 06:52:48;;;;;;;30.02;28.33;;;;;;;22.47;100.00;101131.78;5065547;28;20103;-81
2022/05/17 06:55:15;;;;;;;31.63;29.73;;;;;;;22.53;100.00;101125.25;5070919;28;20056;-81
2022/05/17 06:57:43;;;;;;;31.83;30.02;;;;;;;22.91;100.00;101121.06;5072428;28;20099;-81
2022/05/17 07:00:12;;;;;;;32.03;30.13;;;;;;;22.60;100.00;101117.66;5073773;28;20098;-80
2022/05/17 07:02:39;;;;;;;31.30;29.20;;;;;;;22.73;100.00;101113.56;5066079;28;20496;-82
2022/05/17 07:05:08;;;;;;;31.88;29.77;;;;;;;22.48;100.00;101119.84;5073215;28;20106;-82
2022/05/17 07:07:37;;;;;;;31.13;29.30;;;;;;;22.90;100.00;101122.13;5073822;28;20044;-81
2022/05/17 07:15:33;;;;;;;28.85;27.05;;;;;;;22.79;100.00;101124.09;5073211;28;20436;-82
2022/05/17 07:18:00;;;;;;;29.98;28.13;;;;;;;22.69;100.00;101117.88;5072858;28;20053;-81
2022/05/17 07:20:27;;;;;;;31.83;30.05;;;;;;;23.03;100.00;101126.16;5072373;28;20060;-82
2022/05/17 07:22:55;;;;;;;31.63;29.55;;;;;;;23.04;100.00;101120.47;5073042;28;20052;-81
2022/05/17 07:25:22;;;;;;;30.55;28.60;;;;;;;23.24;99.31;101116.03;5073399;28;20109;-81
2022/05/17 07:27:49;;;;;;;29.90;28.00;;;;;;;22.88;100.00;101118.91;5073085;28;20139;-82
2022/05/17 07:30:16;;;;;;;31.02;28.70;;;;;;;23.27;93.68;101118.16;5071038;28;20451;-84
2022/05/17 07:32:42;;;;;;;30.17;28.30;;;;;;;23.20;94.00;101115.75;5072020;28;20048;-81
2022/05/17 07:35:10;;;;;;;29.83;27.83;;;;;;;23.28;100.00;101117.88;5072643;28;20056;-81
2022/05/17 07:37:36;;;;;;;29.75;27.63;;;;;;;23.65;95.25;101111.09;5073339;28;20045;-81
2022/05/17 07:40:06;;;;;;;30.35;28.25;;;;;;;23.46;100.00;101123.72;5073116;28;20067;-82
2022/05/17 07:42:33;;;;;;;30.67;28.33;;;;;;;23.65;94.48;101108.38;5072501;28;20080;-80
2022/05/17 07:45:00;;;;;;;28.77;27.17;;;;;;;23.05;100.00;101126.69;5072290;28;20476;-81
2022/05/17 07:47:27;;;;;;;27.85;25.95;;;;;;;23.83;95.10;101108.81;5072479;28;20071;-81
2022/05/17 07:49:53;;;;;;;28.60;26.50;;;;;;;23.37;100.00;101120.78;5074836;28;20460;-81
2022/05/17 07:52:20;;;;;;;28.15;25.92;;;;;;;23.96;96.01;101108.97;5077090;28;20453;-82
2022/05/17 07:54:47;;;;;;;27.75;26.05;;;;;;;23.16;100.00;101124.75;5076932;28;20121;-82
2022/05/17 07:57:15;;;;;;;28.25;26.25;;;;;;;23.66;99.06;101115.44;5076271;28;20489;-81
2022/05/17 07:59:43;;;;;;;28.80;26.67;;;;;;;24.16;82.98;101115.25;5076426;28;20118;-81
2022/05/17 08:02:10;;;;;;;27.90;26.30;;;;;;;24.14;81.50;101112.81;5075742;28;20143;-81
2022/05/17 08:04:36;;;;;;;27.42;25.75;;;;;;;24.17;89.96;101106.81;5075884;28;20052;-82
2022/05/17 08:07:04;;;;;;;28.38;26.55;;;;;;;23.73;93.52;101107.81;5076808;28;20385;-81
2022/05/17 08:09:30;;;;;;;27.70;25.65;;;;;;;24.25;91.96;101107.31;5075703;28;20056;-81
2022/05/17 08:11:57;;;;;;;29.45;27.65;;;;;;;24.04;85.89;101104.00;5071811;28;20393;-80
2022/05/17 08:14:26;;;;;;;28.75;26.75;;;;;;;24.59;95.86;101113.44;5076380;28;20049;-80
2022/05/17 08:16:52;;;;;;;28.83;27.23;;;;;;;24.58;79.11;101100.97;5076172;28;20446;-80
2022/05/17 08:19:20;;;;;;;29.45;27.40;;;;;;;24.78;75.92;101109.94;5075967;28;20044;-81
2022/05/17 08:21:47;;;;;;;28.30;26.73;;;;;;;25.05;72.84;101096.56;5076914;28;20124;-81
2022/05/17 08:24:13;;;;;;;40.85;38.60;;;;;;;24.61;71.49;101091.44;5076032;28;20202;-81
2022/05/17 08:29:26;;;;;;;37.72;35.63;;;;;;;24.62;80.81;101082.19;5075971;28;20098;-81
2022/05/17 08:34:36;;;;;;;37.92;35.92;;;;;;;24.88;73.13;101082.66;5072898;28;20146;-80
2022/05/17 08:37:03;;;;;;;37.60;35.35;;;;;;;25.60;64.05;101074.25;5069507;28;20048;-80
2022/05/17 08:39:31;;;;;;;28.70;27.23;;;;;;;25.09;69.60;101077.75;5074053;28;20044;-81
2022/05/17 08:42:08;;;;;;;29.05;27.45;;;;;;;24.28;85.43;101077.69;5072673;28;20051;-80
2022/05/17 08:44:45;;;;;;;30.77;28.77;;;;;;;25.27;66.21;101068.00;5072651;28;20110;-81
2022/05/17 08:47:18;;;;;;;29.52;27.85;;;;;;;24.18;88.92;101073.19;5074555;28;20044;-80
2022/05/17 08:49:55;;;;;;;30.40;28.58;;;;;;;24.90;76.32;101073.13;5074425;28;20044;-82
2022/05/17 08:52:24;;;;;;;32.08;30.35;;;;;;;25.71;68.19;101070.22;5070409;28;20052;-82
2022/05/17 08:54:57;;;;;;;32.22;30.30;;;;;;;26.07;64.18;101066.06;5073225;28;20125;-83
2022/05/17 08:57:28;;;;;;;;;;;;;;;25.48;68.78;101063.03;5069098;28;20071;-82
2022/05/17 08:59:57;;;;;;;30.27;28.50;;;;;;;25.86;67.31;101065.66;5075255;28;20014;-83
2022/05/17 09:02:34;;;;;;;31.27;29.38;;;;;;;25.40;65.94;101063.69;5072776;28;20114;-82
2022/05/17 09:05:10;;;;;;;33.35;31.27;;;;;;;24.76;77.10;101064.06;5069830;28;20100;-82
2022/05/17 09:07:47;;;;;;;29.58;27.88;;;;;;;24.15;90.51;101060.19;5073410;28;20045;-83
2022/05/17 09:10:23;;;;;;;29.35;27.40;;;;;;;24.93;89.07;101066.28;5075006;28;20052;-81
2022/05/17 09:12:56;;;;;;;31.20;29.20;;;;;;;26.04;75.69;101059.31;5074854;28;20113;-81
2022/05/17 09:15:25;;;;;;;29.48;27.48;;;;;;;25.36;80.33;101061.56;5070835;28;20049;-82
2022/05/17 09:17:52;;;;;;;29.33;27.73;;;;;;;24.70;87.66;101059.00;5074917;28;20041;-82
2022/05/17 09:20:23;;;;;;;29.20;27.23;;;;;;;25.50;76.39;101049.94;5074213;28;20052;-85
2022/05/17 09:22:50;;;;;;;32.30;30.27;;;;;;;26.21;67.83;101050.56;5074333;28;20053;-81
2022/05/17 09:25:22;;;;;;;34.50;32.53;;;;;;;26.33;64.81;101058.22;5070611;28;20139;-81
2022/05/17 09:27:52;;;;;;;29.60;27.92;;;;;;;25.57;77.14;101042.22;5074847;28;20045;-82
2022/05/17 09:30:39;;;;;;;29.40;27.60;;;;;;;26.31;71.98;101052.25;5072173;28;20106;-81
2022/05/17 09:33:10;;;;;;;30.15;28.45;;;;;;;26.03;70.67;101047.63;5073468;28;20049;-84
2022/05/17 09:35:44;;;;;;;29.13;27.33;;;;;;;26.82;76.22;101046.56;5069327;28;20113;-82
2022/05/17 09:38:13;;;;;;;29.45;27.55;;;;;;;25.93;76.60;101036.13;5068360;28;20431;-84
2022/05/17 09:40:41;;;;;;;30.15;28.20;;;;;;;24.55;86.83;101036.38;5073935;28;20499;-81
2022/05/17 09:43:11;;;;;;;30.33;28.58;;;;;;;26.26;78.28;101034.94;5072353;28;20052;-80
2022/05/17 09:45:49;;;;;;;29.75;27.75;;;;;;;24.60;92.10;101028.19;5069502;28;20078;-80
2022/05/17 09:48:29;;;;;;;30.02;28.25;;;;;;;25.94;81.20;101029.59;5071711;28;20045;-82
2022/05/17 09:53:44;;;;;;;29.70;28.10;;;;;;;25.09;87.62;101018.75;5069640;28;20420;-80
2022/05/17 09:56:10;;;;;;;30.25;28.35;;;;;;;26.66;69.53;101026.22;5073100;28;20058;-81
2022/05/17 09:58:40;;;;;;;31.00;28.85;;;;;;;25.03;85.93;101024.59;5065921;28;20057;-81
2022/05/17 10:01:16;;;;;;;30.50;28.80;;;;;;;26.81;80.79;101016.88;5065775;28;20225;-81
2022/05/17 10:03:44;;;;;;;29.27;27.48;;;;;;;26.88;66.26;101018.06;5067656;28;20040;-81
2022/05/17 10:06:16;;;;;;;29.92;28.23;;;;;;;27.42;69.88;101012.69;5067009;28;20159;-82
2022/05/17 10:08:47;;;;;;;31.05;29.17;;;;;;;26.81;65.56;101011.41;5069838;28;20052;-81
2022/05/17 10:11:18;;;;;;;30.07;28.17;;;;;;;27.12;75.97;101011.53;5069168;28;20053;-81
2022/05/17 10:14:01;;;;;;;30.90;29.05;;;;;;;26.94;69.21;101010.59;5069276;28;20492;-81
2022/05/17 10:16:37;;;;;;;32.60;30.60;;;;;;;26.71;64.73;101007.03;5070476;28;20056;-81
2022/05/17 10:19:09;;;;;;;31.52;29.83;;;;;;;27.27;65.05;101004.91;5064385;28;20052;-81
2022/05/17 10:21:41;;;;;;;33.97;31.85;;;;;;;27.51;63.14;100996.38;5071119;28;20049;-81
2022/05/17 10:24:18;;;;;;;32.78;30.88;;;;;;;27.70;62.64;100991.50;5070687;28;20131;-81
2022/05/17 10:26:50;;;;;;;31.35;29.45;;;;;;;26.88;65.04;100988.09;5070049;28;20055;-82
2022/05/17 10:29:26;;;;;;;32.50;30.83;;;;;;;27.01;56.75;100980.16;5070531;28;20056;-80
2022/05/17 10:32:01;;;;;;;29.98;28.17;;;;;;;25.69;74.27;100982.69;5067211;28;20059;-80
2022/05/17 10:34:38;;;;;;;29.23;27.33;;;;;;;27.24;56.47;100972.81;5065859;28;20606;-82
2022/05/17 10:37:08;;;;;;;30.08;28.08;;;;;;;28.17;53.85;100970.00;5063229;28;20052;-82
2022/05/17 10:39:40;;;;;;;29.77;27.98;;;;;;;26.42;61.25;100966.53;5070075;28;20114;-83
2022/05/17 10:42:07;;;;;;;29.75;27.92;;;;;;;27.98;53.77;100962.06;5067838;28;20086;-81
2022/05/17 10:44:40;;;;;;;27.90;25.98;;;;;;;28.06;51.78;100955.03;5063759;28;20498;-80
2022/05/17 10:47:26;;;;;;;28.63;26.85;;;;;;;28.77;49.46;100960.22;5067981;28;20048;-82
2022/05/17 10:50:09;;;;;;;28.23;26.33;;;;;;;27.55;55.69;100953.72;5063518;28;20059;-81
2022/05/17 10:52:47;;;;;;;28.63;26.83;;;;;;;28.45;48.26;100948.69;5069024;28;20144;-81
2022/05/17 10:55:22;;;;;;;30.67;28.58;;;;;;;28.91;44.06;100949.13;5063597;28;20048;-83
2022/05/17 10:57:58;;;;;;;28.38;26.67;;;;;;;28.81;46.87;100944.81;5069597;28;20124;-80
2022/05/17 11:00:31;;;;;;;29.75;27.77;;;;;;;28.98;44.86;100942.03;5068240;28;20048;-81
2022/05/17 11:03:33;;;;;;;28.85;27.05;;;;;;;28.38;49.54;100931.13;5057624;28;20100;-81
2022/05/17 11:06:17;;;;;;;28.58;26.80;;;;;;;28.79;44.08;100929.88;5063680;28;20187;-82
2022/05/17 11:08:56;;;;;;;29.05;27.15;;;;;;;29.22;45.73;100910.66;5068180;28;20048;-81
2022/05/17 11:11:46;;;;;;;28.70;26.60;;;;;;;28.63;43.84;100927.63;5063046;28;20056;-81
2022/05/17 11:14:18;;;;;;;28.15;26.50;;;;;;;27.68;47.90;100922.78;5052820;28;20095;-81
2022/05/17 11:16:52;;;;;;;;;;;;;;;28.41;45.67;100912.19;5070476;28;20052;-82
2022/05/17 11:19:26;;;;;;;29.20;27.45;;;;;;;27.55;49.44;100912.81;5067455;28;19977;-81
2022/05/17 11:22:00;;;;;;;29.83;28.05;;;;;;;28.10;49.08;100917.78;5070020;28;20403;-82
2022/05/17 11:24:48;;;;;;;31.30;29.40;;;;;;;28.27;44.16;100912.34;5069167;28;20052;-83
2022/05/17 11:27:28;;;;;;;28.48;26.77;;;;;;;29.03;41.12;100908.28;5067101;28;20129;-81
2022/05/17 11:30:15;;;;;;;28.75;26.83;;;;;;;28.59;43.94;100899.34;5069043;28;20048;-82
2022/05/17 11:33:21;;;;;;;29.80;27.90;;;;;;;28.89;44.85;100904.91;5064545;28;20056;-81
2022/05/17 11:35:53;;;;;;;31.67;29.48;;;;;;;28.72;51.64;100898.38;5070385;28;20048;-81
2022/05/17 11:38:47;;;;;;;31.38;29.27;;;;;;;28.63;50.47;100894.06;5070797;28;20114;-83
2022/05/17 11:41:21;;;;;;;31.10;29.10;;;;;;;29.35;49.40;100892.41;5067908;28;20059;-82
2022/05/17 11:43:51;;;;;;;31.17;28.92;;;;;;;29.41;45.29;100897.38;5072595;28;20421;-82
2022/05/17 11:46:48;;;;;;;28.83;27.02;;;;;;;29.36;46.12;100880.34;5068745;28;20041;-83
2022/05/17 11:49:46;;;;;;;30.73;28.55;;;;;;;29.93;44.38;100873.63;5066835;28;20076;-81
2022/05/17 11:52:33;;;;;;;30.35;28.45;;;;;;;29.07;45.97;100872.91;5071286;28;20053;-83
2022/05/17 11:55:02;;;;;;;30.35;28.48;;;;;;;26.80;56.22;100873.59;5071113;28;20048;-83
2022/05/17 11:58:05;;;;;;;31.17;29.30;;;;;;;28.06;53.50;100864.94;5071632;28;20076;-82
2022/05/17 12:00:37;;;;;;;;;;;;;;;28.83;47.89;100863.28;5073550;28;20056;-82